createdAt,value
2022-09-06T00:01:14.914Z,69.50
2022-09-06T00:03:42.951Z,69.50
2022-09-06T00:06:11.766Z,69.60
2022-09-06T00:08:41.452Z,69.60
2022-09-06T00:11:10.154Z,69.70
2022-09-06T00:13:38.382Z,69.80
2022-09-06T00:16:07.383Z,69.70
2022-09-06T00:18:35.390Z,69.80
2022-09-06T00:21:04.346Z,70.00
2022-09-06T00:23:32.200Z,70.10
2022-09-06T00:26:05.540Z,70.00
2022-09-06T00:28:33.442Z,70.00
2022-09-06T00:31:08.853Z,70.00
2022-09-06T00:33:36.791Z,69.60
2022-09-06T00:36:04.869Z,69.50
2022-09-06T00:38:32.753Z,69.40
2022-09-06T00:41:00.810Z,69.30
2022-09-06T00:43:30.075Z,69.30
2022-09-06T00:45:58.385Z,69.30
2022-09-06T00:48:26.850Z,69.30
2022-09-06T00:50:57.337Z,69.30
2022-09-06T00:53:25.526Z,69.30
2022-09-06T00:55:53.731Z,69.30
2022-09-06T00:58:21.941Z,69.30
2022-09-06T01:00:51.689Z,69.40
2022-09-06T01:03:20.578Z,69.40
2022-09-06T01:05:54.537Z,69.40
2022-09-06T01:08:28.226Z,69.40
2022-09-06T01:11:08.537Z,69.40
2022-09-06T01:13:43.004Z,69.50
2022-09-06T01:16:14.771Z,69.40
2022-09-06T01:18:50.159Z,69.50
2022-09-06T01:21:25.248Z,69.50
2022-09-06T01:24:08.791Z,69.40
2022-09-06T01:26:52.069Z,69.40
2022-09-06T01:29:24.402Z,69.40
2022-09-06T01:31:55.562Z,69.40
2022-09-06T01:34:25.555Z,69.30
2022-09-06T01:37:09.426Z,69.30
2022-09-06T01:39:39.641Z,69.30
2022-09-06T01:42:09.364Z,69.30
2022-09-06T01:44:39.121Z,69.40
2022-09-06T01:47:11.808Z,69.40
2022-09-06T01:49:45.591Z,69.60
2022-09-06T01:52:15.756Z,70.00
2022-09-06T01:55:01.590Z,70.00
2022-09-06T01:57:36.765Z,70.10
2022-09-06T02:00:09.224Z,69.90
2022-09-06T02:02:57.065Z,69.60
2022-09-06T02:05:28.785Z,69.40
2022-09-06T02:07:59.335Z,68.90
2022-09-06T02:10:29.504Z,68.80
2022-09-06T02:13:00.661Z,68.80
2022-09-06T02:15:31.903Z,69.00
2022-09-06T02:18:02.309Z,69.00
2022-09-06T02:20:31.875Z,68.90
2022-09-06T02:23:02.754Z,69.10
2022-09-06T02:25:33.325Z,69.30
2022-09-06T02:28:01.384Z,69.30
2022-09-06T02:30:30.951Z,69.30
2022-09-06T02:33:00.685Z,69.30
2022-09-06T02:35:28.658Z,69.20
2022-09-06T02:37:56.804Z,69.10
2022-09-06T02:40:25.189Z,68.90
2022-09-06T02:42:53.508Z,68.90
2022-09-06T02:45:21.473Z,68.90
2022-09-06T02:47:50.658Z,68.90
2022-09-06T02:50:18.631Z,68.80
2022-09-06T02:52:46.565Z,69.30
2022-09-06T02:55:15.825Z,69.30
2022-09-06T02:57:43.796Z,69.30
2022-09-06T03:00:12.228Z,69.30
2022-09-06T03:02:40.205Z,69.90
2022-09-06T03:05:10.581Z,70.50
2022-09-06T03:07:38.578Z,71.10
2022-09-06T03:10:06.859Z,71.70
2022-09-06T03:12:34.794Z,71.70
2022-09-06T03:15:02.729Z,71.90
2022-09-06T03:17:30.592Z,72.20
2022-09-06T03:19:58.475Z,72.20
2022-09-06T03:22:27.790Z,72.40
2022-09-06T03:24:55.749Z,72.40
2022-09-06T03:27:23.638Z,72.70
2022-09-06T03:29:51.514Z,72.90
2022-09-06T03:32:19.460Z,73.40
2022-09-06T03:34:47.415Z,73.60
2022-09-06T03:37:15.333Z,73.40
2022-09-06T03:39:44.851Z,74.10
2022-09-06T03:42:12.740Z,74.20
2022-09-06T03:44:40.635Z,74.40
2022-09-06T03:47:08.538Z,74.30
2022-09-06T03:49:36.455Z,74.40
2022-09-06T03:52:04.423Z,74.40
2022-09-06T03:54:32.333Z,74.40
2022-09-06T03:57:02.890Z,74.60
2022-09-06T03:59:30.889Z,74.30
2022-09-06T04:01:58.827Z,74.50
2022-09-06T04:04:27.004Z,74.50
2022-09-06T04:06:55.081Z,74.80
2022-09-06T04:09:23.449Z,74.60
2022-09-06T04:11:51.465Z,74.30
2022-09-06T04:14:20.675Z,73.60
2022-09-06T04:16:48.691Z,73.70
2022-09-06T04:19:16.645Z,73.80
2022-09-06T04:21:44.613Z,73.80
2022-09-06T04:24:12.808Z,74.00
2022-09-06T04:26:40.652Z,73.90
2022-09-06T04:29:08.663Z,73.90
2022-09-06T04:31:38.077Z,73.90
2022-09-06T04:34:06.143Z,74.20
2022-09-06T04:36:34.114Z,74.20
2022-09-06T04:39:02.100Z,74.40
2022-09-06T04:41:30.216Z,74.40
2022-09-06T04:43:58.055Z,74.50
2022-09-06T04:46:26.798Z,74.50
2022-09-06T04:48:56.391Z,74.60
2022-09-06T04:51:24.979Z,74.80
2022-09-06T04:53:52.860Z,75.00
2022-09-06T04:56:22.233Z,75.00
2022-09-06T04:58:50.803Z,74.80
2022-09-06T05:01:18.848Z,74.80
2022-09-06T05:03:46.958Z,75.00
2022-09-06T05:06:21.696Z,75.30
2022-09-06T05:08:49.899Z,75.30
2022-09-06T05:11:18.033Z,75.30
2022-09-06T05:13:46.389Z,75.40
2022-09-06T05:16:14.299Z,75.60
2022-09-06T05:18:42.225Z,75.90
2022-09-06T05:21:10.498Z,76.00
2022-09-06T05:23:39.780Z,75.90
2022-09-06T05:26:07.726Z,75.70
2022-09-06T05:28:35.912Z,75.50
2022-09-06T05:31:08.307Z,74.60
2022-09-06T05:33:36.208Z,73.40
2022-09-06T05:36:04.323Z,72.70
2022-09-06T05:38:32.304Z,72.90
2022-09-06T05:41:01.683Z,72.80
2022-09-06T05:43:29.624Z,72.40
2022-09-06T05:45:57.549Z,71.10
2022-09-06T05:48:25.576Z,69.70
2022-09-06T05:51:00.414Z,68.90
2022-09-06T05:53:28.297Z,68.60
2022-09-06T05:55:56.155Z,68.40
2022-09-06T05:58:25.412Z,68.00
2022-09-06T06:00:53.963Z,67.30
2022-09-06T06:03:21.952Z,66.70
2022-09-06T06:05:49.825Z,66.10
2022-09-06T06:08:17.755Z,65.80
2022-09-06T06:10:45.615Z,66.30
2022-09-06T06:13:13.472Z,67.10
2022-09-06T06:15:42.747Z,67.20
2022-09-06T06:18:10.672Z,66.80
2022-09-06T06:20:38.525Z,66.10
2022-09-06T06:23:06.383Z,65.10
2022-09-06T06:25:34.279Z,64.10
2022-09-06T06:28:02.170Z,63.40
2022-09-06T06:30:30.138Z,62.80
2022-09-06T06:33:00.437Z,62.20
2022-09-06T06:35:28.358Z,62.20
2022-09-06T06:37:56.342Z,61.90
2022-09-06T06:40:24.282Z,60.60
2022-09-06T06:42:52.163Z,59.50
2022-09-06T06:45:22.113Z,58.40
2022-09-06T06:47:50.710Z,57.80
2022-09-06T06:50:20.268Z,57.20
2022-09-06T06:52:48.324Z,56.90
2022-09-06T06:55:16.366Z,57.00
2022-09-06T06:57:44.328Z,56.70
2022-09-06T07:00:12.730Z,55.80
2022-09-06T07:02:40.874Z,55.50
2022-09-06T07:07:58.526Z,56.70
2022-09-06T07:10:34.325Z,57.20
2022-09-06T07:13:02.635Z,57.20
2022-09-06T07:15:30.580Z,56.70
2022-09-06T07:17:58.523Z,55.20
2022-09-06T07:20:27.071Z,54.60
2022-09-06T07:25:51.079Z,52.60
2022-09-06T07:28:19.058Z,51.30
2022-09-06T07:30:47.138Z,51.10
2022-09-06T07:33:15.048Z,49.60
2022-09-06T07:35:43.126Z,51.50
2022-09-06T07:38:12.387Z,52.60
2022-09-06T07:40:40.252Z,52.30
2022-09-06T07:43:08.141Z,51.60
2022-09-06T07:45:36.398Z,51.50
2022-09-06T07:48:04.359Z,50.90
2022-09-06T07:50:48.884Z,50.60
2022-09-06T07:53:27.723Z,50.20
2022-09-06T07:55:59.274Z,50.80
2022-09-06T07:58:27.221Z,49.20
2022-09-06T08:00:55.148Z,49.70
2022-09-06T08:03:23.164Z,50.40
2022-09-06T08:11:25.086Z,50.70
2022-09-06T08:13:54.697Z,51.60
2022-09-06T08:16:23.557Z,50.10
2022-09-06T08:18:52.569Z,47.70
2022-09-06T08:21:20.860Z,46.70
2022-09-06T08:23:50.890Z,45.30
2022-09-06T08:26:20.794Z,44.30
2022-09-06T08:28:49.023Z,44.10
2022-09-06T08:31:17.912Z,44.10
2022-09-06T08:33:47.620Z,44.20
2022-09-06T08:36:15.616Z,43.60
2022-09-06T08:38:43.548Z,43.10
2022-09-06T08:41:16.389Z,42.70
2022-09-06T08:43:50.460Z,41.30
2022-09-06T08:46:19.333Z,40.50
2022-09-06T08:48:47.359Z,39.40
2022-09-06T08:51:25.984Z,38.30
2022-09-06T08:53:56.016Z,39.00
2022-09-06T08:56:28.853Z,38.60
2022-09-06T08:59:00.516Z,40.00
2022-09-06T09:01:31.081Z,39.40
2022-09-06T09:04:03.178Z,37.80
2022-09-06T09:06:33.029Z,38.20
2022-09-06T09:09:03.629Z,38.30
2022-09-06T09:11:33.515Z,38.00
2022-09-06T09:14:04.859Z,37.10
2022-09-06T09:16:33.271Z,36.80
2022-09-06T09:19:02.744Z,36.10
2022-09-06T09:21:32.692Z,36.60
2022-09-06T09:24:06.011Z,36.90
2022-09-06T09:26:37.928Z,37.40
2022-09-06T09:29:06.942Z,37.40
2022-09-06T09:31:36.634Z,36.80
2022-09-06T09:34:05.207Z,37.20
2022-09-06T09:36:33.594Z,36.70
2022-09-06T09:39:01.696Z,36.50
2022-09-06T09:41:31.176Z,35.40
2022-09-06T09:44:04.622Z,35.70
2022-09-06T09:46:34.263Z,35.90
2022-09-06T09:49:04.100Z,35.90
2022-09-06T09:51:32.710Z,35.30
2022-09-06T09:54:01.872Z,34.90
2022-09-06T09:56:33.826Z,35.60
2022-09-06T09:59:03.943Z,35.70
2022-09-06T10:01:33.510Z,36.10
2022-09-06T10:09:40.563Z,36.40
2022-09-06T10:12:08.757Z,36.20
2022-09-06T10:14:43.490Z,35.90
2022-09-06T10:17:18.988Z,35.30
2022-09-06T10:19:47.382Z,36.20
2022-09-06T10:22:22.281Z,36.70
2022-09-06T10:25:07.243Z,36.50
2022-09-06T10:27:36.063Z,36.00
2022-09-06T10:30:10.110Z,35.80
2022-09-06T10:32:42.668Z,35.90
2022-09-06T10:35:14.624Z,36.20
2022-09-06T10:37:46.623Z,35.00
2022-09-06T10:40:19.976Z,34.30
2022-09-06T10:42:49.294Z,33.40
2022-09-06T10:45:22.169Z,32.80
2022-09-06T10:47:56.080Z,32.60
2022-09-06T10:50:26.893Z,32.20
2022-09-06T10:52:55.154Z,31.70
2022-09-06T10:55:23.723Z,32.20
2022-09-06T11:00:46.730Z,32.50
2022-09-06T11:06:09.604Z,33.80
2022-09-06T11:08:49.129Z,32.90
2022-09-06T11:11:23.253Z,33.00
2022-09-06T11:13:51.167Z,33.50
2022-09-06T11:16:24.192Z,32.90
2022-09-06T11:18:54.706Z,32.00
2022-09-06T11:21:30.581Z,31.30
2022-09-06T11:24:05.703Z,30.20
2022-09-06T11:26:35.651Z,30.20
2022-09-06T11:29:05.420Z,29.60
2022-09-06T11:34:38.267Z,28.80
2022-09-06T11:37:07.588Z,28.30
2022-09-06T11:42:41.714Z,27.50
2022-09-06T11:45:21.436Z,28.80
2022-09-06T11:47:52.894Z,29.10
2022-09-06T11:50:28.557Z,29.20
2022-09-06T11:53:00.375Z,28.80
2022-09-06T11:55:34.237Z,28.70
2022-09-06T11:58:03.529Z,29.60
2022-09-06T12:00:32.562Z,29.20
2022-09-06T12:06:08.301Z,29.90
2022-09-06T12:08:36.537Z,30.20
2022-09-06T12:11:19.298Z,30.00
2022-09-06T12:13:54.566Z,29.60
2022-09-06T12:16:23.259Z,30.40
2022-09-06T12:19:00.923Z,31.10
2022-09-06T12:21:55.105Z,32.00
2022-09-06T12:24:47.058Z,32.00
2022-09-06T12:27:16.771Z,33.00
2022-09-06T12:29:56.170Z,33.50
2022-09-06T12:32:26.160Z,33.60
2022-09-06T12:37:51.191Z,33.70
2022-09-06T12:40:20.037Z,33.60
2022-09-06T12:42:49.490Z,33.00
2022-09-06T12:45:18.519Z,32.90
2022-09-06T12:47:46.391Z,33.00
2022-09-06T12:50:17.855Z,32.90
2022-09-06T12:52:46.922Z,32.50
2022-09-06T12:55:17.009Z,32.60
2022-09-06T12:57:48.230Z,32.20
2022-09-06T13:00:16.409Z,32.20
2022-09-06T13:02:50.930Z,31.30
2022-09-06T13:05:20.334Z,31.00
2022-09-06T13:07:51.095Z,31.20
2022-09-06T13:10:20.859Z,31.30
2022-09-06T13:12:50.627Z,30.90
2022-09-06T13:15:20.553Z,30.30
2022-09-06T13:17:48.513Z,30.90
2022-09-06T13:20:22.751Z,30.60
2022-09-06T13:22:52.514Z,31.70
2022-09-06T13:25:25.407Z,32.10
2022-09-06T13:27:57.662Z,31.80
2022-09-06T13:30:38.986Z,32.70
2022-09-06T13:33:07.912Z,32.40
2022-09-06T13:35:37.818Z,32.90
2022-09-06T13:38:30.758Z,33.10
2022-09-06T13:41:16.604Z,33.10
2022-09-06T13:43:45.961Z,32.70
2022-09-06T13:46:14.079Z,33.40
2022-09-06T13:48:44.400Z,33.20
2022-09-06T13:51:12.884Z,33.00
2022-09-06T13:53:42.169Z,33.10
2022-09-06T13:56:12.034Z,33.40
2022-09-06T13:58:40.070Z,33.40
2022-09-06T14:01:09.970Z,33.60
2022-09-06T14:03:39.169Z,33.90
2022-09-06T14:06:08.028Z,33.00
2022-09-06T14:09:02.953Z,33.90
2022-09-06T14:11:26.544Z,34.20
2022-09-06T14:13:55.174Z,34.00
2022-09-06T14:16:24.021Z,33.60
2022-09-06T14:18:52.960Z,32.80
2022-09-06T14:21:21.039Z,32.70
2022-09-06T14:23:51.540Z,33.30
2022-09-06T14:26:21.097Z,32.90
2022-09-06T14:28:50.931Z,33.70
2022-09-06T14:31:19.745Z,34.40
2022-09-06T14:33:47.814Z,35.10
2022-09-06T14:36:16.975Z,35.40
2022-09-06T14:38:45.432Z,35.00
2022-09-06T14:41:14.657Z,34.70
2022-09-06T14:43:43.030Z,33.90
2022-09-06T14:46:14.234Z,33.30
2022-09-06T14:48:42.871Z,33.40
2022-09-06T14:51:11.757Z,33.60
2022-09-06T14:53:41.108Z,33.90
2022-09-06T14:56:09.678Z,34.50
2022-09-06T14:58:38.421Z,33.80
2022-09-06T15:01:07.574Z,34.40
2022-09-06T15:03:37.226Z,34.30
2022-09-06T15:06:05.659Z,34.60
2022-09-06T15:08:33.674Z,35.00
2022-09-06T15:11:02.072Z,35.00
2022-09-06T15:13:30.233Z,34.70
2022-09-06T15:15:58.411Z,35.60
2022-09-06T15:18:26.409Z,36.40
2022-09-06T15:20:55.890Z,37.40
2022-09-06T15:23:34.305Z,37.50
2022-09-06T15:26:02.294Z,38.00
2022-09-06T15:28:30.239Z,38.90
2022-09-06T15:30:58.207Z,39.50
2022-09-06T15:33:29.714Z,40.40
2022-09-06T15:36:00.572Z,40.80
2022-09-06T15:38:28.715Z,41.20
2022-09-06T15:41:07.925Z,41.40
2022-09-06T15:43:36.279Z,42.00
2022-09-06T15:46:04.612Z,42.10
2022-09-06T15:48:40.261Z,42.20
2022-09-06T15:51:09.771Z,42.20
2022-09-06T15:53:37.891Z,42.10
2022-09-06T15:56:06.050Z,42.10
2022-09-06T15:58:34.438Z,42.40
2022-09-06T16:01:06.946Z,43.10
2022-09-06T16:03:37.114Z,43.80
2022-09-06T16:08:58.451Z,45.30
2022-09-06T16:11:26.868Z,45.70
2022-09-06T16:13:54.915Z,46.10
2022-09-06T16:16:23.027Z,47.50
2022-09-06T16:18:52.094Z,48.40
2022-09-06T16:21:21.614Z,49.20
2022-09-06T16:23:50.525Z,49.50
2022-09-06T16:26:21.700Z,50.20
2022-09-06T16:28:50.449Z,53.10
2022-09-06T16:31:19.459Z,57.20
2022-09-06T16:33:48.783Z,62.10
2022-09-06T16:36:17.575Z,64.50
2022-09-06T16:38:46.455Z,66.20
2022-09-06T16:41:15.970Z,66.60
2022-09-06T16:43:46.034Z,68.50
2022-09-06T16:46:14.927Z,68.40
2022-09-06T16:48:43.339Z,68.80
2022-09-06T16:51:15.732Z,68.80
2022-09-06T16:53:44.508Z,69.40
2022-09-06T16:56:13.257Z,70.70
2022-09-06T16:58:41.917Z,71.90
2022-09-06T17:01:11.693Z,73.10
2022-09-06T17:03:40.972Z,73.50
2022-09-06T17:06:09.545Z,73.40
2022-09-06T17:08:37.726Z,74.30
2022-09-06T17:11:06.764Z,75.10
2022-09-06T17:13:34.949Z,75.70
2022-09-06T17:16:22.421Z,76.00
2022-09-06T17:18:53.711Z,75.80
2022-09-06T17:21:22.293Z,76.40
2022-09-06T17:23:50.505Z,76.00
2022-09-06T17:26:19.659Z,76.50
2022-09-06T17:28:48.106Z,76.20
2022-09-06T17:31:16.292Z,76.80
2022-09-06T17:33:44.766Z,76.50
2022-09-06T17:36:17.017Z,74.60
2022-09-06T17:38:47.925Z,74.70
2022-09-06T17:41:20.745Z,75.50
2022-09-06T17:43:49.164Z,75.70
2022-09-06T17:46:17.732Z,75.80
2022-09-06T17:48:45.981Z,75.70
2022-09-06T17:51:15.768Z,75.40
2022-09-06T17:53:46.749Z,75.20
2022-09-06T17:56:16.068Z,75.80
2022-09-06T17:58:44.308Z,76.10
2022-09-06T18:01:14.457Z,75.60
2022-09-06T18:03:43.550Z,76.10
2022-09-06T18:06:12.884Z,76.00
2022-09-06T18:08:43.724Z,76.90
2022-09-06T18:11:13.179Z,78.30
2022-09-06T18:13:42.916Z,79.00
2022-09-06T18:16:11.988Z,79.50
2022-09-06T18:18:40.238Z,79.80
2022-09-06T18:21:08.436Z,79.90
2022-09-06T18:23:36.898Z,79.60
2022-09-06T18:26:07.607Z,79.20
2022-09-06T18:28:36.856Z,79.50
2022-09-06T18:31:05.816Z,78.90
2022-09-06T18:33:34.438Z,79.50
2022-09-06T18:36:02.998Z,79.50
2022-09-06T18:38:31.448Z,79.40
2022-09-06T18:41:01.297Z,79.10
2022-09-06T18:43:31.913Z,79.20
2022-09-06T18:46:02.113Z,79.30
2022-09-06T18:48:31.225Z,79.70
2022-09-06T18:51:04.449Z,79.70
2022-09-06T18:53:33.256Z,79.60
2022-09-06T18:56:01.748Z,79.30
2022-09-06T18:58:31.678Z,78.90
2022-09-06T19:01:02.908Z,78.80
2022-09-06T19:03:31.491Z,78.90
2022-09-06T19:06:03.291Z,79.10
2022-09-06T19:08:31.363Z,79.10
2022-09-06T19:11:01.081Z,78.80
2022-09-06T19:13:31.552Z,78.90
2022-09-06T19:15:59.845Z,78.70
2022-09-06T19:18:28.930Z,78.30
2022-09-06T19:20:57.885Z,77.60
2022-09-06T19:23:26.400Z,77.70
2022-09-06T19:25:57.863Z,77.60
2022-09-06T19:28:26.076Z,77.50
2022-09-06T19:30:58.827Z,77.50
2022-09-06T19:33:27.379Z,77.20
2022-09-06T19:36:10.457Z,76.70
2022-09-06T19:39:01.973Z,76.60
2022-09-06T19:41:29.071Z,76.20
2022-09-06T19:43:57.776Z,76.10
2022-09-06T19:46:27.906Z,75.60
2022-09-06T19:48:56.938Z,75.20
2022-09-06T19:51:25.755Z,74.90
2022-09-06T19:53:54.834Z,74.50
2022-09-06T19:56:24.752Z,74.20
2022-09-06T19:58:55.596Z,74.20
2022-09-06T20:01:24.388Z,74.40
2022-09-06T20:03:54.313Z,75.10
2022-09-06T20:06:22.760Z,76.00
2022-09-06T20:08:51.828Z,76.60
2022-09-06T20:11:21.378Z,76.70
2022-09-06T20:13:49.627Z,77.70
2022-09-06T20:16:20.604Z,78.30
2022-09-06T20:18:49.092Z,78.50
2022-09-06T20:21:19.158Z,78.50
2022-09-06T20:23:50.361Z,78.70
2022-09-06T20:26:19.132Z,78.80
2022-09-06T20:28:48.966Z,78.90
2022-09-06T20:31:18.263Z,79.30
2022-09-06T20:33:49.752Z,79.40
2022-09-06T20:36:19.973Z,79.60
2022-09-06T20:38:48.680Z,79.80
2022-09-06T20:41:17.807Z,79.70
2022-09-06T20:43:46.815Z,79.70
2022-09-06T20:46:16.241Z,79.80
2022-09-06T20:48:45.379Z,79.80
2022-09-06T20:51:14.942Z,79.80
2022-09-06T20:53:44.714Z,80.10
2022-09-06T20:56:13.806Z,80.10
2022-09-06T20:58:42.582Z,80.20
2022-09-06T21:01:11.885Z,80.20
2022-09-06T21:03:40.590Z,80.20
2022-09-06T21:06:09.229Z,80.20
2022-09-06T21:08:42.344Z,80.30
2022-09-06T21:11:12.416Z,80.20
2022-09-06T21:13:40.716Z,80.40
2022-09-06T21:16:09.317Z,80.10
2022-09-06T21:18:37.441Z,80.10
2022-09-06T21:21:06.511Z,80.10
2022-09-06T21:23:35.419Z,80.20
2022-09-06T21:26:04.494Z,80.20
2022-09-06T21:28:34.478Z,80.20
2022-09-06T21:31:04.643Z,80.30
2022-09-06T21:33:33.117Z,80.40
2022-09-06T21:36:03.283Z,80.50
2022-09-06T21:38:31.784Z,80.60
2022-09-06T21:40:59.867Z,80.50
2022-09-06T21:43:30.100Z,80.50
2022-09-06T21:46:01.317Z,80.60
2022-09-06T21:48:29.169Z,80.60
2022-09-06T21:50:57.212Z,80.70
2022-09-06T21:53:26.551Z,80.60
2022-09-06T21:55:59.765Z,80.50
2022-09-06T21:58:27.675Z,80.60
2022-09-06T22:00:59.059Z,80.70
2022-09-06T22:03:29.572Z,80.80
2022-09-06T22:05:57.518Z,80.90
2022-09-06T22:08:26.117Z,80.80
2022-09-06T22:10:54.186Z,80.80
2022-09-06T22:13:22.244Z,80.90
2022-09-06T22:15:50.380Z,80.90
2022-09-06T22:18:18.383Z,81.00
2022-09-06T22:20:47.755Z,81.00
2022-09-06T22:23:15.769Z,81.00
2022-09-06T22:25:45.141Z,81.00
2022-09-06T22:28:13.153Z,80.90
2022-09-06T22:30:41.211Z,81.00
2022-09-06T22:33:09.280Z,81.00
2022-09-06T22:35:37.222Z,81.10
2022-09-06T22:38:07.671Z,81.20
2022-09-06T22:40:35.651Z,81.30
2022-09-06T22:43:03.587Z,81.10
2022-09-06T22:45:32.673Z,81.00
2022-09-06T22:48:00.743Z,81.10
2022-09-06T22:50:28.777Z,81.10
2022-09-06T22:52:56.847Z,81.10
2022-09-06T22:55:26.203Z,81.00
2022-09-06T22:57:54.227Z,81.00
2022-09-06T23:00:22.119Z,81.00
2022-09-06T23:02:50.188Z,81.10
2022-09-06T23:05:18.222Z,81.00
2022-09-06T23:07:46.175Z,80.90
2022-09-06T23:10:14.099Z,80.90
2022-09-06T23:12:43.669Z,81.00
2022-09-06T23:15:12.222Z,81.10
2022-09-06T23:17:40.619Z,81.20
2022-09-06T23:20:09.337Z,81.30
2022-09-06T23:22:37.450Z,81.20
2022-09-06T23:25:05.718Z,81.30
2022-09-06T23:27:33.794Z,81.30
2022-09-06T23:30:03.626Z,81.20
2022-09-06T23:32:32.659Z,81.30
2022-09-06T23:35:00.601Z,81.40
2022-09-06T23:37:28.594Z,81.40
2022-09-06T23:39:56.719Z,81.40
2022-09-06T23:42:24.789Z,81.30
2022-09-06T23:44:54.441Z,81.30
2022-09-06T23:47:25.402Z,81.30
2022-09-06T23:49:53.476Z,81.10
2022-09-06T23:52:21.413Z,81.00
2022-09-06T23:54:49.378Z,80.90
2022-09-06T23:57:17.346Z,80.90
2022-09-06T23:59:45.240Z,80.80
